createdAt,value
2018-12-18T00:00:49.606Z,27.52
2018-12-18T00:04:57.555Z,28.42
2018-12-18T00:09:09.506Z,28.20
2018-12-18T00:13:17.162Z,26.75
2018-12-18T00:17:22.932Z,27.48
2018-12-18T00:21:29.755Z,33.00
2018-12-18T00:25:35.913Z,33.67
2018-12-18T00:29:42.979Z,29.18
2018-12-18T00:33:49.135Z,27.60
2018-12-18T00:37:55.067Z,26.27
2018-12-18T00:42:03.514Z,44.13
2018-12-18T00:46:09.674Z,27.17
2018-12-18T00:50:17.242Z,31.80
2018-12-18T00:54:23.286Z,29.72
2018-12-18T00:58:29.080Z,26.87
2018-12-18T01:02:35.056Z,29.40
2018-12-18T01:06:42.871Z,28.15
2018-12-18T01:10:49.214Z,29.00
2018-12-18T01:14:55.288Z,30.40
2018-12-18T01:19:01.442Z,31.33
2018-12-18T01:23:07.952Z,30.77
2018-12-18T01:27:14.723Z,31.55
2018-12-18T01:31:20.636Z,32.80
2018-12-18T01:35:27.538Z,34.80
2018-12-18T01:39:34.471Z,38.98
2018-12-18T01:43:40.491Z,35.78
2018-12-18T01:47:47.227Z,41.00
2018-12-18T01:51:53.319Z,41.75
2018-12-18T01:55:59.005Z,43.87
2018-12-18T02:00:05.511Z,40.55
2018-12-18T02:04:13.550Z,36.93
2018-12-18T02:08:19.338Z,41.30
2018-12-18T02:12:25.197Z,36.25
2018-12-18T02:16:31.409Z,34.92
2018-12-18T02:20:37.688Z,35.45
2018-12-18T02:24:43.678Z,35.68
2018-12-18T02:28:49.821Z,38.42
2018-12-18T02:32:57.609Z,37.03
2018-12-18T02:37:03.720Z,39.23
2018-12-18T02:41:10.699Z,40.52
2018-12-18T02:45:16.902Z,39.18
2018-12-18T02:49:23.914Z,39.60
2018-12-18T02:53:30.029Z,43.25
2018-12-18T02:57:36.029Z,41.37
2018-12-18T03:01:42.619Z,39.23
2018-12-18T03:05:48.615Z,37.08
2018-12-18T03:09:54.830Z,36.23
2018-12-18T03:14:01.676Z,36.25
2018-12-18T03:18:07.614Z,39.35
2018-12-18T03:22:13.447Z,39.83
2018-12-18T03:26:19.424Z,37.30
2018-12-18T03:30:26.118Z,41.28
2018-12-18T03:34:31.959Z,42.78
2018-12-18T03:38:39.091Z,36.77
2018-12-18T03:42:45.566Z,37.53
2018-12-18T03:46:51.523Z,44.55
2018-12-18T03:50:57.547Z,42.75
2018-12-18T03:55:04.392Z,46.92
2018-12-18T03:59:10.230Z,44.93
2018-12-18T04:03:16.315Z,49.03
2018-12-18T04:07:22.344Z,51.80
2018-12-18T04:11:28.349Z,50.28
2018-12-18T04:15:34.604Z,44.05
2018-12-18T04:19:42.067Z,48.48
2018-12-18T04:23:48.262Z,52.85
2018-12-18T04:27:54.092Z,51.15
2018-12-18T04:31:59.996Z,54.55
2018-12-18T04:36:06.014Z,49.58
2018-12-18T04:40:12.185Z,52.88
2018-12-18T04:44:18.023Z,47.90
2018-12-18T04:48:24.045Z,53.20
2018-12-18T04:52:29.890Z,51.53
2018-12-18T04:56:35.908Z,52.53
2018-12-18T05:00:42.128Z,55.78
2018-12-18T05:04:50.412Z,54.18
2018-12-18T05:08:56.468Z,54.25
2018-12-18T05:13:03.107Z,57.53
2018-12-18T05:17:08.911Z,60.48
2018-12-18T05:21:14.821Z,56.95
2018-12-18T05:25:20.730Z,61.37
2018-12-18T05:29:27.391Z,52.48
2018-12-18T05:33:33.277Z,54.03
2018-12-18T05:37:39.462Z,54.95
2018-12-18T05:41:45.412Z,53.25
2018-12-18T05:45:52.092Z,48.30
2018-12-18T05:49:58.009Z,45.45
2018-12-18T05:54:03.894Z,44.03
2018-12-18T05:58:09.552Z,45.52
2018-12-18T06:02:15.648Z,49.65
2018-12-18T06:06:21.276Z,45.38
2018-12-18T06:10:27.249Z,49.88
2018-12-18T06:14:33.136Z,44.83
2018-12-18T06:18:39.116Z,46.58
2018-12-18T06:22:45.214Z,55.52
2018-12-18T06:26:51.062Z,52.93
2018-12-18T06:30:57.417Z,51.45
2018-12-18T06:35:10.037Z,49.00
2018-12-18T06:39:12.314Z,47.03
2018-12-18T06:43:19.454Z,45.55
2018-12-18T06:47:25.061Z,48.28
2018-12-18T06:51:31.125Z,42.90
2018-12-18T06:55:38.016Z,43.83
2018-12-18T06:59:44.200Z,42.65
2018-12-18T07:03:51.826Z,44.65
2018-12-18T07:07:57.834Z,39.65
2018-12-18T07:12:03.824Z,38.42
2018-12-18T07:16:09.660Z,47.27
2018-12-18T07:20:15.382Z,43.20
2018-12-18T07:24:21.184Z,40.05
2018-12-18T07:28:26.739Z,39.33
2018-12-18T07:32:32.534Z,37.95
2018-12-18T07:36:38.138Z,37.20
2018-12-18T07:40:43.739Z,32.70
2018-12-18T07:44:49.428Z,38.13
2018-12-18T07:48:55.113Z,40.48
2018-12-18T07:53:00.629Z,40.17
2018-12-18T07:57:06.241Z,39.13
2018-12-18T08:01:12.431Z,41.18
2018-12-18T08:05:18.033Z,42.30
2018-12-18T08:09:23.761Z,42.23
2018-12-18T08:13:30.204Z,40.20
2018-12-18T08:17:37.312Z,34.15
2018-12-18T08:21:43.701Z,35.98
2018-12-18T08:25:49.462Z,37.40
2018-12-18T08:29:56.018Z,36.80
2018-12-18T08:34:04.265Z,36.70
2018-12-18T08:38:10.376Z,35.95
2018-12-18T08:42:16.130Z,38.10
2018-12-18T08:46:22.291Z,32.78
2018-12-18T08:50:28.344Z,36.17
2018-12-18T08:54:34.165Z,41.37
2018-12-18T08:58:39.878Z,47.08
2018-12-18T09:02:45.527Z,43.40
2018-12-18T09:06:51.376Z,35.63
2018-12-18T09:10:57.452Z,35.65
2018-12-18T09:15:07.091Z,34.95
2018-12-18T09:19:12.781Z,34.73
2018-12-18T09:23:19.388Z,33.93
2018-12-18T09:27:26.358Z,34.60
2018-12-18T09:31:32.151Z,36.58
2018-12-18T09:35:38.002Z,35.85
2018-12-18T09:39:44.067Z,36.23
2018-12-18T09:43:56.271Z,31.82
2018-12-18T09:48:02.976Z,33.42
2018-12-18T09:52:08.640Z,30.02
2018-12-18T09:56:14.401Z,23.90
2018-12-18T10:00:20.488Z,19.90
2018-12-18T10:04:26.203Z,20.82
2018-12-18T10:08:32.182Z,24.05
2018-12-18T10:12:46.330Z,23.40
2018-12-18T10:16:52.595Z,18.73
2018-12-18T10:20:58.360Z,21.40
2018-12-18T10:25:04.392Z,21.02
2018-12-18T10:29:11.855Z,19.12
2018-12-18T10:33:17.504Z,14.30
2018-12-18T10:37:23.183Z,16.20
2018-12-18T10:41:28.916Z,13.93
2018-12-18T10:45:36.371Z,16.52
2018-12-18T10:49:42.232Z,13.88
2018-12-18T10:53:47.907Z,14.33
2018-12-18T10:57:53.566Z,15.03
2018-12-18T11:02:06.512Z,18.60
2018-12-18T11:06:12.754Z,13.58
2018-12-18T11:10:19.429Z,14.55
2018-12-18T11:14:25.155Z,13.90
2018-12-18T11:18:31.052Z,15.45
2018-12-18T11:22:36.615Z,12.90
2018-12-18T11:26:42.531Z,13.93
2018-12-18T11:30:48.225Z,13.53
2018-12-18T11:34:53.949Z,14.18
2018-12-18T11:38:59.563Z,12.45
2018-12-18T11:43:05.181Z,13.18
2018-12-18T11:47:10.846Z,16.17
2018-12-18T11:51:16.766Z,12.90
2018-12-18T11:55:22.472Z,9.98
2018-12-18T11:59:28.163Z,8.23
2018-12-18T12:03:34.951Z,9.13
2018-12-18T12:07:42.712Z,8.60
2018-12-18T12:11:48.568Z,9.30
2018-12-18T12:15:54.399Z,10.85
2018-12-18T12:20:00.235Z,13.48
2018-12-18T12:24:07.386Z,9.10
2018-12-18T12:28:13.286Z,10.25
2018-12-18T12:32:18.934Z,10.00
2018-12-18T12:40:41.332Z,5.23
2018-12-18T12:44:47.532Z,8.27
2018-12-18T12:48:55.374Z,7.95
2018-12-18T12:53:02.115Z,6.85
2018-12-18T12:57:10.291Z,9.20
2018-12-18T13:01:16.447Z,6.87
2018-12-18T13:05:22.616Z,9.70
2018-12-18T13:09:29.118Z,8.25
2018-12-18T13:13:34.777Z,8.75
2018-12-18T13:17:40.952Z,9.68
2018-12-18T13:21:46.756Z,10.53
2018-12-18T13:25:52.766Z,9.70
2018-12-18T13:29:59.040Z,10.48
2018-12-18T13:34:04.649Z,12.35
2018-12-18T13:38:10.679Z,8.18
2018-12-18T13:42:16.507Z,8.30
2018-12-18T13:46:22.368Z,8.60
2018-12-18T13:50:28.637Z,9.70
2018-12-18T13:54:34.372Z,7.53
2018-12-18T13:58:40.055Z,8.80
2018-12-18T14:02:45.611Z,8.03
2018-12-18T14:06:51.207Z,7.42
2018-12-18T14:10:57.758Z,7.93
2018-12-18T14:15:03.997Z,8.85
2018-12-18T14:19:09.641Z,6.90
2018-12-18T14:23:15.327Z,6.78
2018-12-18T14:27:21.102Z,7.28
2018-12-18T14:31:26.702Z,9.30
2018-12-18T14:35:32.359Z,7.55
2018-12-18T14:39:37.976Z,6.85
2018-12-18T14:43:43.679Z,9.73
2018-12-18T14:47:49.315Z,7.95
2018-12-18T14:51:54.912Z,8.65
2018-12-18T14:56:00.508Z,6.28
2018-12-18T15:00:07.683Z,7.62
2018-12-18T15:04:13.579Z,7.80
2018-12-18T15:08:19.844Z,7.65
2018-12-18T15:12:25.515Z,11.85
2018-12-18T15:16:31.106Z,10.58
2018-12-18T15:20:37.556Z,8.00
2018-12-18T15:24:43.244Z,10.03
2018-12-18T15:28:49.000Z,10.40
2018-12-18T15:32:58.591Z,8.98
2018-12-18T15:37:09.600Z,11.38
2018-12-18T15:41:12.632Z,10.40
2018-12-18T15:45:18.197Z,8.20
2018-12-18T15:49:24.727Z,11.15
2018-12-18T15:53:32.244Z,8.75
2018-12-18T15:57:39.218Z,12.50
2018-12-18T16:01:45.186Z,9.75
2018-12-18T16:05:52.067Z,9.23
2018-12-18T16:09:58.352Z,9.10
2018-12-18T16:14:04.665Z,10.08
2018-12-18T16:18:10.884Z,13.00
2018-12-18T16:22:19.002Z,11.73
2018-12-18T16:26:25.237Z,14.28
2018-12-18T16:30:31.637Z,9.13
2018-12-18T16:34:40.254Z,11.80
2018-12-18T16:38:46.806Z,9.38
2018-12-18T16:42:53.049Z,9.80
2018-12-18T16:46:59.855Z,9.90
2018-12-18T16:51:07.620Z,9.65
2018-12-18T16:55:13.911Z,10.65
2018-12-18T17:04:12.389Z,12.43
2018-12-18T17:08:18.915Z,11.28
2018-12-18T17:12:25.436Z,11.70
2018-12-18T17:16:31.684Z,11.10
2018-12-18T17:20:37.408Z,11.55
2018-12-18T17:29:01.792Z,14.07
2018-12-18T17:33:08.206Z,13.65
2018-12-18T17:37:14.219Z,13.05
2018-12-18T17:41:20.535Z,12.37
2018-12-18T17:45:26.675Z,13.38
2018-12-18T17:49:32.631Z,9.98
2018-12-18T17:53:38.916Z,14.40
2018-12-18T17:57:47.884Z,12.03
2018-12-18T18:06:41.414Z,12.10
2018-12-18T18:10:48.443Z,12.93
2018-12-18T18:14:56.827Z,12.97
2018-12-18T18:19:03.807Z,15.17
2018-12-18T18:23:10.242Z,13.48
2018-12-18T18:27:16.561Z,12.95
2018-12-18T18:31:22.839Z,10.95
2018-12-18T18:35:29.215Z,15.45
2018-12-18T18:39:35.740Z,17.70
2018-12-18T18:43:41.853Z,20.43
2018-12-18T18:47:48.120Z,19.65
2018-12-18T18:51:54.323Z,14.58
2018-12-18T18:56:00.617Z,18.32
2018-12-18T19:00:08.788Z,15.95
2018-12-18T19:04:15.682Z,16.57
2018-12-18T19:08:21.648Z,13.95
2018-12-18T19:12:28.283Z,11.18
2018-12-18T19:16:34.600Z,13.22
2018-12-18T19:20:40.867Z,14.10
2018-12-18T19:24:46.912Z,14.35
2018-12-18T19:28:52.870Z,16.07
2018-12-18T19:33:00.211Z,12.90
2018-12-18T19:37:06.763Z,13.28
2018-12-18T19:41:16.573Z,14.85
2018-12-18T19:45:23.343Z,14.05
2018-12-18T19:49:30.789Z,12.60
2018-12-18T19:53:37.478Z,12.78
2018-12-18T19:57:46.459Z,11.48
2018-12-18T20:01:53.956Z,12.47
2018-12-18T20:10:27.807Z,13.70
2018-12-18T20:14:35.416Z,12.90
2018-12-18T20:18:43.985Z,13.50
2018-12-18T20:22:53.543Z,14.63
2018-12-18T20:27:01.530Z,15.53
2018-12-18T20:31:07.791Z,14.98
2018-12-18T20:35:14.581Z,16.45
2018-12-18T20:39:20.629Z,18.17
2018-12-18T20:43:26.635Z,17.48
2018-12-18T20:47:32.946Z,20.80
2018-12-18T20:51:39.102Z,19.32
2018-12-18T20:55:45.939Z,19.77
2018-12-18T20:59:52.162Z,21.70
2018-12-18T21:04:00.207Z,24.10
2018-12-18T21:08:09.628Z,22.20
2018-12-18T21:12:15.746Z,24.15
2018-12-18T21:16:22.754Z,26.10
2018-12-18T21:20:29.458Z,26.68
2018-12-18T21:24:36.324Z,29.37
2018-12-18T21:28:43.488Z,26.80
2018-12-18T21:32:50.754Z,28.07
2018-12-18T21:36:58.050Z,26.93
2018-12-18T21:41:04.969Z,30.02
2018-12-18T21:45:11.786Z,29.50
2018-12-18T21:49:19.750Z,32.25
2018-12-18T21:53:25.942Z,34.25
2018-12-18T21:57:32.441Z,31.70
2018-12-18T22:01:38.561Z,31.48
2018-12-18T22:05:49.836Z,33.00
2018-12-18T22:09:57.804Z,30.85
2018-12-18T22:14:07.257Z,34.15
2018-12-18T22:18:15.360Z,33.83
2018-12-18T22:22:24.087Z,36.20
2018-12-18T22:26:31.289Z,32.75
2018-12-18T22:30:39.409Z,33.58
2018-12-18T22:34:45.438Z,36.13
2018-12-18T22:38:52.371Z,32.88
2018-12-18T22:42:58.707Z,33.20
2018-12-18T22:47:04.887Z,31.30
2018-12-18T22:51:10.954Z,34.95
2018-12-18T22:55:18.271Z,39.13
2018-12-18T22:59:24.691Z,38.63
2018-12-18T23:03:30.525Z,35.70
2018-12-18T23:07:37.674Z,37.40
2018-12-18T23:11:44.268Z,35.88
2018-12-18T23:15:53.843Z,36.95
2018-12-18T23:19:59.787Z,36.30
2018-12-18T23:24:05.779Z,36.63
2018-12-18T23:28:11.980Z,37.58
2018-12-18T23:32:18.896Z,39.03
2018-12-18T23:36:24.964Z,36.50
2018-12-18T23:40:32.439Z,38.17
2018-12-18T23:44:38.428Z,39.75
2018-12-18T23:48:44.408Z,39.78
2018-12-18T23:52:50.345Z,41.95
2018-12-18T23:56:56.329Z,40.88
